Time;durP1;ratioP1;P1;durP2;ratioP2;P2;SDS_P1;SDS_P2;PMS_P1;PMS_P2;Temp;Humidity;BMP_temperature;BMP_pressure;BME280_temperature;BME280_humidity;BME280_pressure;Samples;Min_cycle;Max_cycle;Signal;HPM_P1;HPM_P2
2023/06/06 00:00:39;;;;;;;13.95;8.13;;;;;;;18.29;nan;100580.34;5057499;28;20021;-73
2023/06/06 00:03:05;;;;;;;12.07;8.13;;;;;;;18.31;nan;100593.41;5054909;28;20029;-73
2023/06/06 00:05:31;;;;;;;11.80;8.35;;;;;;;18.33;nan;100597.41;5057147;28;20043;-73
2023/06/06 00:07:57;;;;;;;13.70;8.82;;;;;;;18.30;nan;100602.50;5057383;28;20020;-73
2023/06/06 00:10:23;;;;;;;13.35;8.57;;;;;;;18.28;nan;100597.44;5037144;28;20036;-73
2023/06/06 00:12:52;;;;;;;11.15;8.38;;;;;;;18.18;nan;100581.47;5057180;28;20051;-73
2023/06/06 00:15:19;;;;;;;13.10;8.13;;;;;;;18.23;nan;100600.91;5056178;28;20020;-73
2023/06/06 00:17:45;;;;;;;14.02;8.60;;;;;;;18.18;nan;100594.81;5058251;28;20397;-72
2023/06/06 00:20:11;;;;;;;14.43;8.55;;;;;;;18.07;nan;100581.47;5058770;28;20032;-73
2023/06/06 00:22:38;;;;;;;16.02;8.90;;;;;;;18.15;nan;100590.81;5056500;28;20028;-73
2023/06/06 00:25:04;;;;;;;14.15;8.70;;;;;;;18.13;nan;100594.81;5043421;28;20179;-73
2023/06/06 00:27:31;;;;;;;14.48;8.55;;;;;;;18.09;nan;100594.53;5057115;28;20074;-73
2023/06/06 00:29:57;;;;;;;14.93;9.02;;;;;;;17.97;nan;100581.50;5056411;28;20587;-73
2023/06/06 00:32:22;;;;;;;11.10;8.00;;;;;;;18.02;nan;100580.69;5056365;28;20059;-72
2023/06/06 00:34:48;;;;;;;12.70;8.25;;;;;;;17.96;nan;100585.25;5053978;28;20113;-72
2023/06/06 00:37:13;;;;;;;12.75;7.65;;;;;;;17.90;nan;100572.22;5045450;28;20024;-71
2023/06/06 00:39:39;;;;;;;10.00;7.93;;;;;;;17.73;nan;100554.63;5055810;28;20025;-71
2023/06/06 00:42:04;;;;;;;15.15;7.70;;;;;;;17.75;nan;100554.34;5058249;28;20178;-74
2023/06/06 00:44:30;;;;;;;10.90;7.78;;;;;;;17.90;nan;100590.84;5062328;28;20032;-72
2023/06/06 00:46:56;;;;;;;11.63;7.65;;;;;;;17.82;nan;100585.00;5057237;28;20032;-72
2023/06/06 00:49:22;;;;;;;10.90;7.32;;;;;;;17.80;nan;100589.78;5055240;28;20036;-72
2023/06/06 00:51:47;;;;;;;10.02;7.05;;;;;;;17.83;nan;100601.78;5055009;28;20033;-73
2023/06/06 00:54:15;;;;;;;10.23;6.97;;;;;;;17.75;nan;100588.97;5054923;28;20031;-72
2023/06/06 00:56:43;;;;;;;11.13;7.25;;;;;;;17.70;nan;100581.78;5056613;28;20053;-72
2023/06/06 00:59:10;;;;;;;15.38;7.45;;;;;;;17.72;nan;100586.84;5057432;28;20039;-73
2023/06/06 01:01:38;;;;;;;9.75;7.05;;;;;;;17.70;nan;100589.00;5056541;28;20047;-73
2023/06/06 01:04:08;;;;;;;10.48;7.43;;;;;;;17.67;nan;100578.84;5056906;28;20058;-72
2023/06/06 01:06:35;;;;;;;10.70;6.78;;;;;;;17.65;nan;100584.47;5058104;28;20429;-72
2023/06/06 01:09:06;;;;;;;8.45;7.00;;;;;;;17.61;nan;100589.50;5043167;28;20495;-72
2023/06/06 01:11:43;;;;;;;11.98;7.40;;;;;;;17.60;nan;100597.78;5055800;28;20025;-73
2023/06/06 01:14:19;;;;;;;12.23;7.40;;;;;;;17.57;nan;100603.63;5055523;28;20036;-72
2023/06/06 01:16:49;;;;;;;12.27;7.07;;;;;;;17.50;nan;100585.25;5053754;28;20046;-72
2023/06/06 01:19:19;;;;;;;11.15;7.97;;;;;;;17.56;nan;100602.81;5054307;28;20136;-72
2023/06/06 01:21:45;;;;;;;11.68;7.80;;;;;;;17.53;nan;100598.03;5055483;28;20028;-72
2023/06/06 01:24:11;;;;;;;11.98;7.35;;;;;;;17.46;nan;100586.06;5054790;28;20386;-72
2023/06/06 01:26:37;;;;;;;8.98;7.05;;;;;;;17.48;nan;100586.56;5055694;28;20041;-73
2023/06/06 01:29:02;;;;;;;13.93;7.60;;;;;;;17.49;nan;100593.50;5055078;28;20632;-73
2023/06/06 01:31:36;;;;;;;13.07;7.28;;;;;;;17.52;nan;100593.78;5053414;28;20487;-73
2023/06/06 01:34:17;;;;;;;9.68;6.90;;;;;;;17.54;nan;100591.63;5057175;28;20032;-72
2023/06/06 01:36:54;;;;;;;10.07;6.97;;;;;;;17.50;nan;100581.78;5056075;28;20039;-73
2023/06/06 01:39:22;;;;;;;11.95;6.78;;;;;;;17.59;nan;100588.97;5060230;28;20024;-73
2023/06/06 01:41:53;;;;;;;10.02;6.55;;;;;;;17.59;nan;100580.97;5060672;28;20025;-73
2023/06/06 01:44:21;;;;;;;12.00;6.60;;;;;;;17.54;nan;100570.34;5059505;28;20033;-73
2023/06/06 01:46:47;;;;;;;9.90;6.13;;;;;;;17.62;nan;100582.31;5058983;28;20036;-73
2023/06/06 01:49:14;;;;;;;8.73;6.68;;;;;;;17.65;nan;100592.44;5059554;28;20089;-73
2023/06/06 01:51:39;;;;;;;9.05;6.25;;;;;;;17.62;nan;100580.47;5059432;28;20024;-72
2023/06/06 01:54:05;;;;;;;8.35;6.55;;;;;;;17.61;nan;100578.06;5058502;28;20099;-72
2023/06/06 01:56:33;;;;;;;10.32;5.70;;;;;;;17.65;nan;100589.78;5057020;28;20132;-73
2023/06/06 01:58:58;;;;;;;10.10;5.38;;;;;;;17.63;nan;100574.06;5045132;28;20530;-73
2023/06/06 02:01:24;;;;;;;10.00;5.78;;;;;;;17.61;nan;100567.41;5058565;28;20029;-73
2023/06/06 02:03:49;;;;;;;8.05;5.68;;;;;;;17.66;nan;100580.72;5058043;28;20059;-73
2023/06/06 02:06:14;;;;;;;7.50;5.72;;;;;;;17.69;nan;100582.06;5057850;28;20078;-73
2023/06/06 02:08:40;;;;;;;11.98;6.00;;;;;;;17.71;nan;100587.91;5058878;28;20024;-72
2023/06/06 02:11:06;;;;;;;10.00;5.80;;;;;;;17.68;nan;100577.81;5058309;28;20031;-73
2023/06/06 02:13:31;;;;;;;9.20;5.78;;;;;;;17.67;nan;100576.19;5047669;28;20029;-73
2023/06/06 02:15:56;;;;;;;10.30;5.82;;;;;;;17.68;nan;100580.47;5056092;28;20082;-74
2023/06/06 02:18:22;;;;;;;7.43;5.53;;;;;;;17.66;nan;100578.06;5054858;28;20052;-72
2023/06/06 02:20:47;;;;;;;9.82;5.78;;;;;;;17.72;nan;100590.31;5057830;28;20063;-72
2023/06/06 02:23:14;;;;;;;9.70;5.45;;;;;;;17.76;nan;100590.56;5059103;28;20033;-72
2023/06/06 02:25:39;;;;;;;9.77;5.53;;;;;;;17.73;nan;100585.78;5061418;28;20111;-73
2023/06/06 02:28:05;;;;;;;8.77;5.25;;;;;;;17.72;nan;100586.84;5063899;28;20020;-73
2023/06/06 02:30:30;;;;;;;9.32;5.97;;;;;;;17.73;nan;100591.13;5060774;28;20035;-72
2023/06/06 02:32:56;;;;;;;7.95;5.50;;;;;;;17.68;nan;100591.13;5054776;28;20079;-73
2023/06/06 02:35:22;;;;;;;8.18;5.47;;;;;;;17.72;nan;100600.16;5058559;28;20027;-73
2023/06/06 02:37:48;;;;;;;12.07;5.70;;;;;;;17.72;nan;100600.16;5060688;28;20095;-72
2023/06/06 02:40:13;;;;;;;9.00;5.47;;;;;;;17.73;nan;100607.09;5057269;28;20021;-73
2023/06/06 02:42:39;;;;;;;10.70;4.88;;;;;;;17.71;nan;100609.22;5057794;28;20616;-72
2023/06/06 02:45:08;;;;;;;9.52;6.05;;;;;;;17.67;nan;100608.97;5055447;28;20619;-73
2023/06/06 02:47:34;;;;;;;8.73;5.68;;;;;;;17.64;nan;100601.50;5056595;28;20028;-72
2023/06/06 02:50:00;;;;;;;6.75;5.25;;;;;;;17.74;nan;100619.31;5056586;28;20017;-73
2023/06/06 02:52:26;;;;;;;9.35;5.25;;;;;;;17.68;nan;100594.56;5056896;28;20029;-72
2023/06/06 02:54:51;;;;;;;7.43;5.82;;;;;;;17.69;nan;100606.03;5057804;28;20025;-72
2023/06/06 02:57:17;;;;;;;9.10;5.30;;;;;;;17.75;nan;100615.63;5059176;28;20067;-72
2023/06/06 02:59:42;;;;;;;7.60;5.20;;;;;;;17.76;nan;100604.69;5056378;28;20474;-72
2023/06/06 03:02:09;;;;;;;9.82;5.35;;;;;;;17.76;nan;100601.22;5057978;28;20449;-72
2023/06/06 03:04:35;;;;;;;11.45;5.47;;;;;;;17.70;nan;100599.66;5043250;28;20029;-72
2023/06/06 03:07:00;;;;;;;12.98;5.75;;;;;;;17.73;nan;100612.41;5057913;28;20112;-72
2023/06/06 03:09:27;;;;;;;8.07;5.30;;;;;;;17.68;nan;100599.09;5058881;28;20041;-74
2023/06/06 03:11:55;;;;;;;9.85;5.45;;;;;;;17.76;nan;100614.53;5055775;28;20040;-72
2023/06/06 03:14:21;;;;;;;8.95;5.20;;;;;;;17.79;nan;100612.16;5047265;28;20020;-72
2023/06/06 03:16:51;;;;;;;7.88;5.07;;;;;;;17.75;nan;100610.28;5039361;28;20110;-73
2023/06/06 03:19:16;;;;;;;7.53;4.90;;;;;;;17.79;nan;100612.16;5058155;28;20054;-73
2023/06/06 03:21:42;;;;;;;5.63;5.00;;;;;;;17.75;nan;100613.75;5059571;28;20029;-72
2023/06/06 03:24:08;;;;;;;7.40;5.25;;;;;;;17.75;nan;100611.09;5055458;28;20028;-72
2023/06/06 03:26:34;;;;;;;7.38;5.38;;;;;;;17.78;nan;100612.41;5055339;28;20031;-72
2023/06/06 03:29:00;;;;;;;8.13;5.28;;;;;;;17.74;nan;100598.03;5055077;28;20880;-72
2023/06/06 03:31:29;;;;;;;7.72;5.45;;;;;;;17.77;nan;100608.97;5055035;28;20131;-72
2023/06/06 03:33:54;;;;;;;;;;;;;;;17.84;nan;100622.03;5039603;28;20074;-72
2023/06/06 03:36:19;;;;;;;8.97;5.33;;;;;;;17.76;nan;100606.56;5056866;28;19980;-73
2023/06/06 03:38:45;;;;;;;7.68;5.50;;;;;;;17.78;nan;100618.53;5042234;28;20029;-74
2023/06/06 03:41:11;;;;;;;7.20;5.18;;;;;;;17.79;nan;100619.31;5054431;28;20067;-72
2023/06/06 03:43:37;;;;;;;6.45;4.88;;;;;;;17.77;nan;100608.97;5059357;28;20028;-72
2023/06/06 03:46:03;;;;;;;7.95;5.57;;;;;;;17.76;nan;100614.53;5057200;28;20044;-73
2023/06/06 03:48:28;;;;;;;10.20;5.15;;;;;;;17.81;nan;100626.03;5057642;28;20025;-72
2023/06/06 03:50:53;;;;;;;7.43;5.57;;;;;;;17.75;nan;100621.75;5053587;28;20112;-72
2023/06/06 03:53:19;;;;;;;7.32;5.72;;;;;;;17.72;nan;100621.47;5054824;28;20028;-73
2023/06/06 03:55:44;;;;;;;9.70;5.68;;;;;;;17.71;nan;100617.22;5056916;28;20149;-73
2023/06/06 03:58:10;;;;;;;12.88;5.97;;;;;;;17.77;nan;100624.16;5044990;28;20053;-74
2023/06/06 04:00:39;;;;;;;10.95;5.35;;;;;;;17.71;nan;100620.66;5044339;28;20062;-74
2023/06/06 04:03:04;;;;;;;8.82;5.90;;;;;;;17.62;nan;100607.09;5056940;28;20028;-73
2023/06/06 04:05:33;;;;;;;7.65;5.93;;;;;;;17.70;nan;100621.75;5058879;28;20029;-75
2023/06/06 04:07:59;;;;;;;9.30;6.35;;;;;;;17.66;nan;100618.00;5060789;28;20025;-74
2023/06/06 04:10:25;;;;;;;19.20;5.57;;;;;;;17.62;nan;100612.44;5046935;28;20032;-73
2023/06/06 04:12:50;;;;;;;7.35;6.22;;;;;;;17.62;nan;100607.09;5057445;28;20032;-73
2023/06/06 04:15:16;;;;;;;8.00;5.57;;;;;;;17.47;nan;100585.78;5039992;28;20021;-73
2023/06/06 04:17:41;;;;;;;10.50;5.05;;;;;;;17.61;nan;100610.03;5057601;28;20082;-73
2023/06/06 04:20:08;;;;;;;6.30;4.50;;;;;;;17.58;nan;100603.38;5055128;28;20036;-74
2023/06/06 04:22:33;;;;;;;10.00;5.20;;;;;;;17.68;nan;100609.75;5057533;28;20020;-74
2023/06/06 04:24:59;;;;;;;7.45;4.68;;;;;;;17.70;nan;100626.28;5055447;28;20021;-72
2023/06/06 04:27:25;;;;;;;10.15;5.18;;;;;;;17.63;nan;100611.34;5056072;28;20021;-74
2023/06/06 04:29:57;;;;;;;6.28;4.97;;;;;;;17.51;nan;100584.19;5058385;28;20036;-74
2023/06/06 04:32:23;;;;;;;8.52;4.93;;;;;;;17.73;nan;100617.75;5057028;28;20021;-75
2023/06/06 04:34:51;;;;;;;8.45;5.40;;;;;;;17.54;nan;100585.53;5054742;28;20020;-73
2023/06/06 04:37:18;;;;;;;6.35;4.85;;;;;;;17.71;nan;100610.00;5055223;28;20036;-73
2023/06/06 04:39:43;;;;;;;10.23;5.20;;;;;;;17.74;nan;100619.31;5057998;28;20759;-74
2023/06/06 04:42:08;;;;;;;8.70;5.13;;;;;;;17.73;nan;100613.22;5054376;28;20031;-74
2023/06/06 04:44:41;;;;;;;7.68;5.05;;;;;;;17.77;nan;100621.47;5056130;28;20025;-74
2023/06/06 04:47:08;;;;;;;7.05;4.82;;;;;;;17.79;nan;100620.16;5056212;28;20662;-74
2023/06/06 04:49:35;;;;;;;8.40;4.90;;;;;;;17.71;nan;100606.56;5057303;28;20055;-73
2023/06/06 04:52:12;;;;;;;7.63;4.97;;;;;;;17.81;nan;100631.38;5053324;28;20121;-74
2023/06/06 04:54:39;;;;;;;10.73;4.78;;;;;;;17.80;nan;100631.59;5045427;28;20090;-74
2023/06/06 04:57:07;;;;;;;11.43;5.13;;;;;;;17.77;nan;100630.25;5055386;28;20041;-74
2023/06/06 04:59:33;;;;;;;9.77;5.50;;;;;;;17.76;nan;100612.66;5040103;28;20024;-75
2023/06/06 05:02:01;;;;;;;10.55;6.10;;;;;;;17.80;nan;100627.09;5055904;28;20143;-76
2023/06/06 05:04:29;;;;;;;13.15;6.00;;;;;;;17.76;nan;100620.66;5058677;28;20108;-75
2023/06/06 05:06:55;;;;;;;8.05;5.32;;;;;;;17.74;nan;100619.31;5053811;28;20074;-75
2023/06/06 05:09:21;;;;;;;12.05;5.15;;;;;;;17.74;nan;100625.47;5060069;28;20024;-75
2023/06/06 05:11:48;;;;;;;8.38;5.00;;;;;;;17.77;nan;100635.59;5060669;28;20035;-75
2023/06/06 05:14:14;;;;;;;16.23;8.88;;;;;;;17.76;nan;100641.97;5061282;28;20025;-75
2023/06/06 05:16:40;;;;;;;19.25;9.27;;;;;;;17.73;nan;100631.84;5060370;28;20025;-74
2023/06/06 05:19:06;;;;;;;11.40;6.95;;;;;;;17.58;nan;100614.03;5058686;28;20042;-75
2023/06/06 05:21:33;;;;;;;14.48;6.60;;;;;;;17.79;nan;100646.78;5041965;28;20131;-75
2023/06/06 05:23:58;;;;;;;7.93;5.50;;;;;;;17.74;nan;100632.66;5059302;28;20021;-75
2023/06/06 05:26:25;;;;;;;12.98;5.78;;;;;;;17.77;nan;100632.13;5062509;28;20024;-75
2023/06/06 05:28:51;;;;;;;8.60;5.18;;;;;;;17.80;nan;100639.59;5057730;28;20025;-75
2023/06/06 05:31:20;;;;;;;9.73;5.28;;;;;;;17.78;nan;100642.50;5057511;28;20108;-75
2023/06/06 05:33:46;;;;;;;9.07;5.15;;;;;;;17.81;nan;100639.38;5059891;28;20021;-75
2023/06/06 05:36:12;;;;;;;7.55;4.88;;;;;;;17.78;nan;100641.72;5059425;28;20033;-74
2023/06/06 05:38:37;;;;;;;8.35;5.32;;;;;;;17.79;nan;100638.78;5058211;28;20098;-75
2023/06/06 05:41:03;;;;;;;9.30;4.72;;;;;;;17.71;nan;100623.31;5061243;28;20360;-74
2023/06/06 05:43:30;;;;;;;7.68;5.25;;;;;;;17.73;nan;100623.88;5059746;28;20021;-74
2023/06/06 05:45:56;;;;;;;7.00;4.82;;;;;;;17.77;nan;100626.81;5058700;28;20051;-74
2023/06/06 05:48:21;;;;;;;9.43;4.93;;;;;;;17.80;nan;100635.09;5046305;28;20470;-74
2023/06/06 05:50:47;;;;;;;12.27;5.53;;;;;;;17.81;nan;100638.53;5058270;28;20040;-74
2023/06/06 05:53:12;;;;;;;8.57;5.22;;;;;;;17.83;nan;100644.41;5038351;28;20021;-74
2023/06/06 05:55:38;;;;;;;10.75;5.55;;;;;;;17.74;nan;100633.47;5056782;28;20107;-73
2023/06/06 05:58:04;;;;;;;7.50;5.15;;;;;;;17.73;nan;100628.41;5040276;28;20049;-73
2023/06/06 06:00:32;;;;;;;12.55;5.82;;;;;;;17.95;nan;100652.13;5058026;28;20033;-74
2023/06/06 06:02:58;;;;;;;11.93;6.10;;;;;;;17.89;nan;100645.22;5056387;28;20076;-71
2023/06/06 06:05:28;;;;;;;11.45;5.95;;;;;;;17.95;nan;100655.59;5063189;28;20081;-71
2023/06/06 06:07:54;;;;;;;10.52;6.03;;;;;;;17.89;nan;100648.69;5057381;28;20032;-71
2023/06/06 06:10:20;;;;;;;11.25;6.28;;;;;;;17.99;nan;100655.84;5060863;28;20028;-74
2023/06/06 06:12:46;;;;;;;10.32;6.20;;;;;;;18.01;nan;100659.84;5059247;28;20142;-74
2023/06/06 06:15:11;;;;;;;12.05;5.90;;;;;;;18.02;nan;100657.97;5060884;28;20498;-74
2023/06/06 06:17:37;;;;;;;9.32;6.03;;;;;;;17.91;nan;100640.41;5061688;28;20056;-74
2023/06/06 06:20:08;;;;;;;9.98;6.25;;;;;;;18.13;nan;100680.91;5056715;28;20067;-74
2023/06/06 06:22:35;;;;;;;12.32;6.55;;;;;;;18.22;nan;100673.97;5056933;28;20434;-73
2023/06/06 06:25:00;;;;;;;9.27;5.88;;;;;;;18.18;nan;100666.78;5056171;28;20036;-75
2023/06/06 06:27:25;;;;;;;9.05;5.78;;;;;;;18.27;nan;100676.63;5056045;28;20029;-74
2023/06/06 06:29:51;;;;;;;8.35;5.43;;;;;;;18.27;nan;100681.16;5057792;28;20020;-73
2023/06/06 06:32:19;;;;;;;8.60;4.97;;;;;;;18.30;nan;100675.28;5060200;28;20136;-74
2023/06/06 06:34:44;;;;;;;10.17;4.50;;;;;;;18.36;nan;100690.19;5058777;28;20017;-74
2023/06/06 06:37:10;;;;;;;8.43;5.57;;;;;;;18.29;nan;100673.66;5040455;28;20102;-73
2023/06/06 06:39:35;;;;;;;10.63;5.10;;;;;;;18.33;nan;100669.41;5057890;28;20029;-75
2023/06/06 06:42:01;;;;;;;8.18;4.47;;;;;;;17.89;nan;100611.38;5058670;28;20037;-73
2023/06/06 06:44:26;;;;;;;7.43;4.22;;;;;;;18.43;nan;100687.22;5057420;28;20028;-74
2023/06/06 06:46:51;;;;;;;14.38;5.30;;;;;;;18.52;nan;100695.50;5057165;28;20739;-73
2023/06/06 06:49:17;;;;;;;9.75;4.90;;;;;;;18.55;nan;100695.75;5058432;28;20047;-75
2023/06/06 06:51:43;;;;;;;11.48;4.20;;;;;;;18.61;nan;100701.88;5054388;28;20409;-74
2023/06/06 06:54:12;;;;;;;7.85;3.80;;;;;;;18.66;nan;100699.97;5058176;28;20028;-74
2023/06/06 06:56:43;;;;;;;8.43;4.38;;;;;;;18.66;nan;100699.97;5057027;28;20041;-74
2023/06/06 06:59:09;;;;;;;5.82;3.50;;;;;;;18.71;nan;100701.84;5046495;28;20024;-74
2023/06/06 07:01:37;;;;;;;7.95;4.07;;;;;;;18.77;nan;100702.63;5061082;28;20024;-74
2023/06/06 07:04:08;;;;;;;8.98;4.15;;;;;;;18.80;nan;100702.91;5043512;28;20480;-74
2023/06/06 07:06:34;;;;;;;8.18;4.30;;;;;;;18.81;nan;100696.50;5059524;28;20024;-73
2023/06/06 07:09:06;;;;;;;10.40;4.43;;;;;;;18.90;nan;100705.53;5060618;28;20016;-74
2023/06/06 07:11:31;;;;;;;9.38;3.72;;;;;;;19.00;nan;100711.91;5058644;28;20115;-74
2023/06/06 07:13:57;;;;;;;9.05;4.25;;;;;;;18.98;nan;100700.69;5060191;28;20456;-73
2023/06/06 07:16:23;;;;;;;6.85;4.28;;;;;;;19.02;nan;100713.22;5056010;28;20021;-73
2023/06/06 07:18:51;;;;;;;7.72;3.80;;;;;;;19.01;nan;100708.97;5043438;28;20021;-72
2023/06/06 07:21:18;;;;;;;6.28;4.30;;;;;;;19.04;nan;100716.44;5055648;28;20029;-73
2023/06/06 07:23:43;;;;;;;9.68;4.30;;;;;;;19.04;nan;100724.44;5057653;28;20039;-73
2023/06/06 07:26:10;;;;;;;9.23;4.13;;;;;;;19.00;nan;100725.25;5058518;28;20754;-73
2023/06/06 07:28:35;;;;;;;11.55;4.93;;;;;;;18.99;nan;100729.78;5052131;28;20020;-73
2023/06/06 07:31:01;;;;;;;6.28;4.05;;;;;;;19.04;nan;100745.00;5054390;28;20036;-72
2023/06/06 07:33:26;;;;;;;11.95;4.30;;;;;;;19.03;nan;100746.06;5056000;28;20541;-73
2023/06/06 07:35:52;;;;;;;11.18;4.43;;;;;;;19.05;nan;100743.91;5055452;28;20029;-73
2023/06/06 07:38:17;;;;;;;7.55;4.45;;;;;;;19.08;nan;100746.03;5059018;28;20432;-73
2023/06/06 07:40:42;;;;;;;8.77;5.57;;;;;;;19.05;nan;100747.38;5058719;28;20017;-73
2023/06/06 07:43:08;;;;;;;8.02;4.45;;;;;;;19.11;nan;100753.50;5044691;28;20029;-73
2023/06/06 07:45:33;;;;;;;11.38;4.78;;;;;;;19.08;nan;100751.38;5058506;28;20033;-73
2023/06/06 07:47:58;;;;;;;8.40;4.45;;;;;;;19.11;nan;100745.50;5057456;28;20090;-73
2023/06/06 07:50:25;;;;;;;7.00;4.75;;;;;;;19.19;nan;100752.94;5046853;28;20051;-74
2023/06/06 07:52:51;;;;;;;8.73;4.30;;;;;;;19.16;nan;100745.47;5054617;28;20037;-73
2023/06/06 07:55:16;;;;;;;7.43;4.20;;;;;;;19.18;nan;100746.00;5053314;28;20046;-73
2023/06/06 07:57:45;;;;;;;7.22;3.90;;;;;;;19.15;nan;100743.06;5054597;28;20764;-73
2023/06/06 08:00:14;;;;;;;5.13;4.22;;;;;;;19.20;nan;100756.41;5057237;28;20519;-73
2023/06/06 08:02:40;;;;;;;6.22;4.43;;;;;;;19.16;nan;100745.47;5055338;28;20033;-73
2023/06/06 08:05:07;;;;;;;9.13;4.97;;;;;;;19.17;nan;100738.25;5047665;28;20029;-75
2023/06/06 08:07:38;;;;;;;8.18;4.70;;;;;;;19.21;nan;100737.44;5058266;28;20109;-74
2023/06/06 08:10:06;;;;;;;8.13;5.32;;;;;;;19.20;nan;100737.69;5039100;28;20021;-74
2023/06/06 08:12:32;;;;;;;7.05;4.50;;;;;;;19.20;nan;100733.19;5056867;28;20036;-74
2023/06/06 08:14:57;;;;;;;9.57;4.60;;;;;;;19.18;nan;100748.69;5056099;28;20028;-74
2023/06/06 08:17:23;;;;;;;9.85;4.78;;;;;;;19.18;nan;100751.34;5052847;28;20029;-74
2023/06/06 08:19:48;;;;;;;9.23;5.35;;;;;;;19.14;nan;100739.59;5055751;28;20098;-74
2023/06/06 08:22:14;;;;;;;7.35;4.95;;;;;;;19.24;nan;100755.56;5055850;28;20020;-74
2023/06/06 08:24:41;;;;;;;7.15;4.72;;;;;;;19.25;nan;100753.69;5059632;28;20661;-74
2023/06/06 08:27:06;;;;;;;9.30;5.03;;;;;;;19.21;nan;100740.09;5055006;28;20438;-73
2023/06/06 08:29:32;;;;;;;8.85;5.25;;;;;;;19.23;nan;100747.84;5054143;28;20039;-72
2023/06/06 08:31:57;;;;;;;7.68;4.60;;;;;;;19.24;nan;100744.91;5056554;28;20032;-71
2023/06/06 08:34:23;;;;;;;6.90;5.00;;;;;;;19.27;nan;100746.22;5046407;28;20390;-72
2023/06/06 08:36:49;;;;;;;8.63;5.25;;;;;;;19.16;nan;100729.47;5058032;28;20028;-72
2023/06/06 08:39:18;;;;;;;7.25;4.55;;;;;;;19.18;nan;100731.84;5041690;28;20021;-72
2023/06/06 08:41:49;;;;;;;7.88;4.40;;;;;;;19.24;nan;100728.88;5037506;28;20021;-72
2023/06/06 08:44:15;;;;;;;7.05;4.60;;;;;;;19.19;nan;100712.88;5041914;28;20020;-72
2023/06/06 08:46:42;;;;;;;10.32;4.95;;;;;;;19.24;nan;100715.53;5065658;28;20036;-71
2023/06/06 08:49:08;;;;;;;6.82;4.32;;;;;;;19.28;nan;100721.91;5048652;28;20025;-72
2023/06/06 08:51:34;;;;;;;6.13;4.00;;;;;;;19.26;nan;100712.59;5063183;28;20073;-72
2023/06/06 08:54:00;;;;;;;7.78;4.45;;;;;;;19.38;nan;100722.94;5064260;28;20036;-73
2023/06/06 08:56:27;;;;;;;9.60;4.38;;;;;;;19.37;nan;100718.66;5058749;28;20170;-73
2023/06/06 08:58:52;;;;;;;9.65;4.35;;;;;;;19.49;nan;100727.13;5062007;28;20036;-73
2023/06/06 09:01:19;;;;;;;9.32;5.18;;;;;;;19.58;nan;100735.38;5062456;28;20020;-73
2023/06/06 09:03:46;;;;;;;6.68;4.63;;;;;;;19.57;nan;100726.56;5047124;28;20363;-72
2023/06/06 09:06:12;;;;;;;10.10;5.20;;;;;;;19.60;nan;100728.69;5062084;28;20490;-73
2023/06/06 09:08:39;;;;;;;8.45;5.10;;;;;;;19.54;nan;100716.44;5061472;28;20111;-73
2023/06/06 09:11:05;;;;;;;7.95;5.03;;;;;;;19.61;nan;100732.13;5064454;28;20021;-72
2023/06/06 09:13:31;;;;;;;7.65;4.95;;;;;;;19.60;nan;100717.19;5050042;28;20111;-73
2023/06/06 09:15:56;;;;;;;9.45;4.32;;;;;;;19.61;nan;100724.94;5060703;28;20167;-72
2023/06/06 09:18:29;;;;;;;12.90;5.38;;;;;;;19.65;nan;100730.53;5062049;28;20032;-74
2023/06/06 09:20:55;;;;;;;6.68;4.85;;;;;;;19.63;nan;100728.13;5062878;28;20113;-74
2023/06/06 09:23:21;;;;;;;8.27;4.90;;;;;;;19.61;nan;100734.81;5062640;28;20054;-74
2023/06/06 09:25:49;;;;;;;7.75;4.32;;;;;;;19.73;nan;100752.16;5066778;28;20094;-74
2023/06/06 09:28:15;;;;;;;6.30;4.23;;;;;;;19.72;nan;100753.19;5050159;28;20029;-74
2023/06/06 09:30:41;;;;;;;7.82;4.28;;;;;;;19.75;nan;100759.88;5064580;28;20047;-73
2023/06/06 09:33:06;;;;;;;5.72;4.38;;;;;;;19.62;nan;100739.09;5059953;28;20036;-74
2023/06/06 09:35:34;;;;;;;5.10;4.07;;;;;;;19.81;nan;100757.97;5064993;28;20031;-73
2023/06/06 09:38:16;;;;;;;11.38;4.10;;;;;;;19.82;nan;100752.34;5063343;28;20117;-73
2023/06/06 09:40:47;;;;;;;5.78;3.90;;;;;;;19.80;nan;100745.66;5060856;28;20029;-73
2023/06/06 09:43:13;;;;;;;7.43;3.80;;;;;;;19.78;nan;100740.63;5063909;28;20021;-74
2023/06/06 09:45:50;;;;;;;6.68;3.45;;;;;;;19.82;nan;100735.50;5062322;28;20111;-74
2023/06/06 09:48:23;;;;;;;4.70;4.10;;;;;;;19.83;nan;100747.81;5060201;28;20016;-74
2023/06/06 09:50:49;;;;;;;4.55;3.58;;;;;;;19.75;nan;100736.63;5061800;28;20371;-68
2023/06/06 09:53:15;;;;;;;6.30;3.83;;;;;;;19.82;nan;100740.84;5061516;28;20024;-68
2023/06/06 09:55:41;;;;;;;5.13;3.80;;;;;;;19.85;nan;100740.28;5063905;28;20279;-69
2023/06/06 09:58:09;;;;;;;6.70;3.53;;;;;;;19.82;nan;100741.66;5058872;28;20040;-68
2023/06/06 10:00:38;;;;;;;5.30;3.38;;;;;;;19.76;nan;100756.94;5058300;28;20530;-68
2023/06/06 10:03:06;;;;;;;4.47;3.58;;;;;;;19.82;nan;100747.00;5057819;28;20029;-68
2023/06/06 10:05:31;;;;;;;5.47;3.35;;;;;;;19.79;nan;100744.09;5059547;28;20604;-68
2023/06/06 10:07:57;;;;;;;5.55;3.47;;;;;;;19.79;nan;100736.06;5060596;28;20036;-68
2023/06/06 10:10:24;;;;;;;6.82;3.00;;;;;;;19.69;nan;100740.41;5060682;28;20037;-67
2023/06/06 10:12:53;;;;;;;8.15;3.15;;;;;;;19.55;nan;100739.41;5058947;28;20025;-67
2023/06/06 10:15:20;;;;;;;;;;;;;;;19.49;nan;100727.13;5056172;28;20021;-67
2023/06/06 10:17:45;;;;;;;5.32;2.65;;;;;;;19.38;nan;100721.06;5059530;28;20370;-67
2023/06/06 10:20:12;;;;;;;3.50;2.70;;;;;;;19.33;nan;100731.78;5058589;28;20032;-68
2023/06/06 10:22:38;;;;;;;6.25;2.90;;;;;;;19.34;nan;100725.34;5057205;28;20017;-67
2023/06/06 10:25:11;;;;;;;7.40;2.78;;;;;;;19.38;nan;100728.28;5059075;28;20028;-68
2023/06/06 10:27:47;;;;;;;5.63;2.80;;;;;;;19.41;nan;100733.06;5057612;28;20368;-67
2023/06/06 10:30:21;;;;;;;4.43;3.00;;;;;;;19.34;nan;100731.50;5042180;28;20025;-67
2023/06/06 10:33:01;;;;;;;5.68;3.28;;;;;;;19.36;nan;100733.88;5057906;28;20467;-68
2023/06/06 10:35:27;;;;;;;6.57;2.90;;;;;;;19.38;nan;100738.97;5057654;28;20029;-69
2023/06/06 10:38:21;;;;;;;8.73;3.60;;;;;;;19.39;nan;100733.34;5057433;28;20090;-70
2023/06/06 10:40:51;;;;;;;6.43;3.72;;;;;;;19.40;nan;100723.47;5054375;28;20036;-69
2023/06/06 10:43:33;;;;;;;6.85;2.63;;;;;;;19.44;nan;100727.16;5060163;28;20037;-70
2023/06/06 10:45:59;;;;;;;8.98;2.90;;;;;;;19.38;nan;100714.94;5056724;28;20111;-69
2023/06/06 10:48:38;;;;;;;6.18;2.67;;;;;;;19.39;nan;100735.22;5059118;28;20039;-70
2023/06/06 10:51:04;;;;;;;5.57;2.80;;;;;;;19.45;nan;100734.13;5055164;28;20048;-70
2023/06/06 10:53:29;;;;;;;4.57;3.03;;;;;;;19.37;nan;100718.66;5056062;28;20039;-70
2023/06/06 10:55:55;;;;;;;5.53;2.50;;;;;;;19.40;nan;100713.59;5058110;28;20016;-71
2023/06/06 10:58:23;;;;;;;6.15;2.97;;;;;;;19.50;nan;100724.19;5059431;28;20190;-70
2023/06/06 11:01:04;;;;;;;5.97;3.00;;;;;;;19.53;nan;100715.63;5056348;28;20052;-70
2023/06/06 11:03:34;;;;;;;5.35;2.85;;;;;;;19.57;nan;100718.56;5055348;28;20020;-70
2023/06/06 11:06:00;;;;;;;6.68;2.70;;;;;;;19.55;nan;100723.38;5056889;28;20075;-71
2023/06/06 11:08:35;;;;;;;4.28;3.15;;;;;;;19.58;nan;100724.69;5058029;28;20123;-70
2023/06/06 11:11:21;;;;;;;4.30;2.70;;;;;;;19.50;nan;100705.50;5056776;28;20037;-70
2023/06/06 11:13:56;;;;;;;7.07;3.03;;;;;;;19.63;nan;100728.13;5061027;28;20036;-71
2023/06/06 11:16:40;;;;;;;5.88;3.03;;;;;;;19.67;nan;100726.50;5046696;28;20090;-70
2023/06/06 11:19:19;;;;;;;5.57;2.70;;;;;;;19.62;nan;100718.50;5058994;28;20025;-69
2023/06/06 11:21:58;;;;;;;;;;;;;;;19.55;nan;100718.81;5056873;28;20033;-69
2023/06/06 11:24:31;;;;;;;5.13;3.45;;;;;;;19.35;nan;100684.25;5060915;28;20014;-69
2023/06/06 11:26:57;;;;;;;7.13;3.13;;;;;;;19.58;nan;100714.78;5058966;28;20070;-69
2023/06/06 11:29:28;;;;;;;6.97;3.03;;;;;;;19.60;nan;100709.97;5057146;28;20056;-68
2023/06/06 11:31:53;;;;;;;5.20;3.13;;;;;;;19.63;nan;100706.75;5059092;28;20025;-68
2023/06/06 11:34:20;;;;;;;5.20;3.20;;;;;;;19.66;nan;100714.22;5056378;28;20593;-69
2023/06/06 11:36:46;;;;;;;7.68;3.10;;;;;;;19.65;nan;100719.84;5058778;28;20814;-69
2023/06/06 11:39:13;;;;;;;10.25;3.22;;;;;;;19.58;nan;100698.75;5056667;28;20127;-70